sensor_id;sensor_type;location;lat;lon;timestamp;P1;durP1;ratioP1;P2;durP2;ratioP2
65279;SDS011;51878;55.748;48.742;2022-10-17T00:02:25;9.20;;;4.13;;
65279;SDS011;51878;55.748;48.742;2022-10-17T00:04:52;6.65;;;4.20;;
65279;SDS011;51878;55.748;48.742;2022-10-17T00:07:19;6.10;;;4.03;;
65279;SDS011;51878;55.748;48.742;2022-10-17T00:09:45;8.15;;;4.40;;
65279;SDS011;51878;55.748;48.742;2022-10-17T00:12:13;5.97;;;4.25;;
65279;SDS011;51878;55.748;48.742;2022-10-17T00:14:39;8.50;;;5.05;;
65279;SDS011;51878;55.748;48.742;2022-10-17T00:17:06;8.05;;;5.00;;
65279;SDS011;51878;55.748;48.742;2022-10-17T00:19:33;8.35;;;4.70;;
65279;SDS011;51878;55.748;48.742;2022-10-17T00:22:00;6.28;;;4.40;;
65279;SDS011;51878;55.748;48.742;2022-10-17T00:24:29;8.10;;;4.82;;
65279;SDS011;51878;55.748;48.742;2022-10-17T00:26:56;7.05;;;4.72;;
65279;SDS011;51878;55.748;48.742;2022-10-17T00:29:23;14.57;;;5.03;;
65279;SDS011;51878;55.748;48.742;2022-10-17T00:31:54;9.43;;;4.80;;
65279;SDS011;51878;55.748;48.742;2022-10-17T00:34:22;7.38;;;4.78;;
65279;SDS011;51878;55.748;48.742;2022-10-17T00:36:50;7.63;;;4.93;;
65279;SDS011;51878;55.748;48.742;2022-10-17T00:39:18;9.52;;;4.75;;
65279;SDS011;51878;55.748;48.742;2022-10-17T00:41:46;11.00;;;5.20;;
65279;SDS011;51878;55.748;48.742;2022-10-17T00:46:59;6.70;;;4.88;;
65279;SDS011;51878;55.748;48.742;2022-10-17T00:49:30;7.55;;;5.05;;
65279;SDS011;51878;55.748;48.742;2022-10-17T00:52:33;8.40;;;4.60;;
65279;SDS011;51878;55.748;48.742;2022-10-17T00:54:55;9.70;;;5.07;;
65279;SDS011;51878;55.748;48.742;2022-10-17T00:57:29;8.63;;;4.90;;
65279;SDS011;51878;55.748;48.742;2022-10-17T00:59:58;7.75;;;4.72;;
65279;SDS011;51878;55.748;48.742;2022-10-17T01:02:29;7.45;;;5.50;;
65279;SDS011;51878;55.748;48.742;2022-10-17T01:04:57;9.27;;;5.22;;
65279;SDS011;51878;55.748;48.742;2022-10-17T01:07:25;15.25;;;5.78;;
65279;SDS011;51878;55.748;48.742;2022-10-17T01:09:57;8.57;;;5.63;;
65279;SDS011;51878;55.748;48.742;2022-10-17T01:18:03;8.07;;;5.32;;
65279;SDS011;51878;55.748;48.742;2022-10-17T01:34:32;7.82;;;5.03;;
65279;SDS011;51878;55.748;48.742;2022-10-17T01:37:07;10.52;;;5.22;;
65279;SDS011;51878;55.748;48.742;2022-10-17T01:42:25;6.75;;;5.43;;
65279;SDS011;51878;55.748;48.742;2022-10-17T01:45:05;9.13;;;4.75;;
65279;SDS011;51878;55.748;48.742;2022-10-17T01:47:38;6.72;;;4.50;;
65279;SDS011;51878;55.748;48.742;2022-10-17T01:50:12;11.85;;;4.82;;
65279;SDS011;51878;55.748;48.742;2022-10-17T01:52:50;8.30;;;5.30;;
65279;SDS011;51878;55.748;48.742;2022-10-17T01:55:22;8.23;;;5.20;;
65279;SDS011;51878;55.748;48.742;2022-10-17T01:57:56;8.48;;;4.75;;
65279;SDS011;51878;55.748;48.742;2022-10-17T02:00:28;6.70;;;4.88;;
65279;SDS011;51878;55.748;48.742;2022-10-17T02:02:59;9.85;;;5.40;;
65279;SDS011;51878;55.748;48.742;2022-10-17T02:05:30;10.82;;;4.70;;
65279;SDS011;51878;55.748;48.742;2022-10-17T02:08:03;8.73;;;5.20;;
65279;SDS011;51878;55.748;48.742;2022-10-17T02:10:45;9.25;;;5.45;;
65279;SDS011;51878;55.748;48.742;2022-10-17T02:16:29;7.55;;;5.03;;
65279;SDS011;51878;55.748;48.742;2022-10-17T02:35:36;7.82;;;4.68;;
65279;SDS011;51878;55.748;48.742;2022-10-17T02:38:07;10.02;;;4.72;;
65279;SDS011;51878;55.748;48.742;2022-10-17T02:40:38;8.93;;;5.28;;
65279;SDS011;51878;55.748;48.742;2022-10-17T02:43:06;8.48;;;5.13;;
65279;SDS011;51878;55.748;48.742;2022-10-17T02:45:36;8.40;;;5.10;;
65279;SDS011;51878;55.748;48.742;2022-10-17T02:48:05;8.80;;;5.47;;
65279;SDS011;51878;55.748;48.742;2022-10-17T02:53:32;8.50;;;5.55;;
65279;SDS011;51878;55.748;48.742;2022-10-17T02:56:21;10.88;;;5.53;;
65279;SDS011;51878;55.748;48.742;2022-10-17T02:58:55;10.75;;;5.45;;
65279;SDS011;51878;55.748;48.742;2022-10-17T03:01:25;7.65;;;5.45;;
65279;SDS011;51878;55.748;48.742;2022-10-17T03:04:03;8.25;;;5.95;;
65279;SDS011;51878;55.748;48.742;2022-10-17T03:06:34;8.43;;;5.88;;
65279;SDS011;51878;55.748;48.742;2022-10-17T03:09:01;12.60;;;6.30;;
65279;SDS011;51878;55.748;48.742;2022-10-17T03:11:28;7.50;;;5.05;;
65279;SDS011;51878;55.748;48.742;2022-10-17T03:13:55;8.70;;;5.13;;
65279;SDS011;51878;55.748;48.742;2022-10-17T03:16:22;9.38;;;5.82;;
65279;SDS011;51878;55.748;48.742;2022-10-17T03:18:49;9.52;;;5.50;;
65279;SDS011;51878;55.748;48.742;2022-10-17T03:21:16;9.98;;;5.70;;
65279;SDS011;51878;55.748;48.742;2022-10-17T03:23:43;8.60;;;6.05;;
65279;SDS011;51878;55.748;48.742;2022-10-17T03:26:10;9.13;;;5.40;;
65279;SDS011;51878;55.748;48.742;2022-10-17T03:28:37;8.65;;;5.53;;
65279;SDS011;51878;55.748;48.742;2022-10-17T03:31:08;8.52;;;5.70;;
65279;SDS011;51878;55.748;48.742;2022-10-17T03:33:36;8.95;;;5.80;;
65279;SDS011;51878;55.748;48.742;2022-10-17T03:36:04;12.18;;;6.18;;
65279;SDS011;51878;55.748;48.742;2022-10-17T03:38:33;7.05;;;5.50;;
65279;SDS011;51878;55.748;48.742;2022-10-17T03:41:01;9.80;;;6.05;;
65279;SDS011;51878;55.748;48.742;2022-10-17T03:43:29;8.15;;;5.90;;
65279;SDS011;51878;55.748;48.742;2022-10-17T03:45:57;7.47;;;5.30;;
65279;SDS011;51878;55.748;48.742;2022-10-17T03:48:25;10.68;;;5.47;;
65279;SDS011;51878;55.748;48.742;2022-10-17T03:51:00;8.90;;;5.55;;
65279;SDS011;51878;55.748;48.742;2022-10-17T03:53:29;17.75;;;6.10;;
65279;SDS011;51878;55.748;48.742;2022-10-17T03:56:07;10.90;;;5.50;;
65279;SDS011;51878;55.748;48.742;2022-10-17T03:58:38;8.70;;;5.50;;
65279;SDS011;51878;55.748;48.742;2022-10-17T04:01:06;9.00;;;5.65;;
65279;SDS011;51878;55.748;48.742;2022-10-17T04:03:35;7.43;;;5.68;;
65279;SDS011;51878;55.748;48.742;2022-10-17T04:06:03;7.13;;;5.22;;
65279;SDS011;51878;55.748;48.742;2022-10-17T04:08:31;9.40;;;5.47;;
65279;SDS011;51878;55.748;48.742;2022-10-17T04:10:59;10.32;;;5.15;;
65279;SDS011;51878;55.748;48.742;2022-10-17T04:13:27;8.52;;;5.07;;
65279;SDS011;51878;55.748;48.742;2022-10-17T04:15:55;8.82;;;5.60;;
65279;SDS011;51878;55.748;48.742;2022-10-17T04:18:27;10.35;;;5.30;;
65279;SDS011;51878;55.748;48.742;2022-10-17T04:20:54;8.32;;;5.35;;
65279;SDS011;51878;55.748;48.742;2022-10-17T04:23:21;7.53;;;5.00;;
65279;SDS011;51878;55.748;48.742;2022-10-17T04:25:48;9.32;;;4.93;;
65279;SDS011;51878;55.748;48.742;2022-10-17T04:28:15;8.55;;;5.75;;
65279;SDS011;51878;55.748;48.742;2022-10-17T04:30:43;7.80;;;5.47;;
65279;SDS011;51878;55.748;48.742;2022-10-17T04:33:10;7.28;;;4.72;;
65279;SDS011;51878;55.748;48.742;2022-10-17T04:35:37;7.20;;;4.93;;
65279;SDS011;51878;55.748;48.742;2022-10-17T04:38:04;6.97;;;4.80;;
65279;SDS011;51878;55.748;48.742;2022-10-17T04:40:35;10.45;;;5.03;;
65279;SDS011;51878;55.748;48.742;2022-10-17T04:43:02;5.90;;;4.68;;
65279;SDS011;51878;55.748;48.742;2022-10-17T04:45:29;5.85;;;4.63;;
65279;SDS011;51878;55.748;48.742;2022-10-17T04:47:56;7.25;;;4.68;;
65279;SDS011;51878;55.748;48.742;2022-10-17T04:50:23;7.57;;;4.75;;
65279;SDS011;51878;55.748;48.742;2022-10-17T04:52:50;7.68;;;4.47;;
65279;SDS011;51878;55.748;48.742;2022-10-17T04:55:17;10.05;;;4.65;;
65279;SDS011;51878;55.748;48.742;2022-10-17T04:57:44;6.40;;;4.10;;
65279;SDS011;51878;55.748;48.742;2022-10-17T05:00:11;5.28;;;4.10;;
65279;SDS011;51878;55.748;48.742;2022-10-17T05:02:39;6.63;;;4.22;;
65279;SDS011;51878;55.748;48.742;2022-10-17T05:05:06;8.43;;;4.90;;
65279;SDS011;51878;55.748;48.742;2022-10-17T05:07:33;5.03;;;3.78;;
65279;SDS011;51878;55.748;48.742;2022-10-17T05:10:00;9.80;;;3.88;;
65279;SDS011;51878;55.748;48.742;2022-10-17T05:12:28;13.50;;;3.60;;
65279;SDS011;51878;55.748;48.742;2022-10-17T05:14:56;8.00;;;3.60;;
65279;SDS011;51878;55.748;48.742;2022-10-17T05:17:23;7.55;;;4.43;;
65279;SDS011;51878;55.748;48.742;2022-10-17T05:19:50;9.70;;;3.92;;
65279;SDS011;51878;55.748;48.742;2022-10-17T05:22:18;6.13;;;3.78;;
65279;SDS011;51878;55.748;48.742;2022-10-17T05:24:45;5.25;;;3.47;;
65279;SDS011;51878;55.748;48.742;2022-10-17T05:27:12;7.82;;;3.38;;
65279;SDS011;51878;55.748;48.742;2022-10-17T05:29:39;6.75;;;3.97;;
65279;SDS011;51878;55.748;48.742;2022-10-17T05:32:07;8.32;;;3.30;;
65279;SDS011;51878;55.748;48.742;2022-10-17T05:34:34;7.07;;;3.70;;
65279;SDS011;51878;55.748;48.742;2022-10-17T05:37:01;6.07;;;3.83;;
65279;SDS011;51878;55.748;48.742;2022-10-17T05:39:28;6.53;;;3.65;;
65279;SDS011;51878;55.748;48.742;2022-10-17T05:41:55;5.78;;;3.55;;
65279;SDS011;51878;55.748;48.742;2022-10-17T05:44:22;6.57;;;3.42;;
65279;SDS011;51878;55.748;48.742;2022-10-17T05:46:49;5.82;;;3.70;;
65279;SDS011;51878;55.748;48.742;2022-10-17T05:49:18;6.80;;;2.88;;
65279;SDS011;51878;55.748;48.742;2022-10-17T05:51:58;8.20;;;4.03;;
65279;SDS011;51878;55.748;48.742;2022-10-17T05:54:25;6.80;;;3.67;;
65279;SDS011;51878;55.748;48.742;2022-10-17T05:56:53;6.97;;;3.47;;
65279;SDS011;51878;55.748;48.742;2022-10-17T05:59:22;7.97;;;3.28;;
65279;SDS011;51878;55.748;48.742;2022-10-17T06:01:52;7.43;;;3.40;;
65279;SDS011;51878;55.748;48.742;2022-10-17T06:04:22;6.97;;;3.15;;
65279;SDS011;51878;55.748;48.742;2022-10-17T06:06:49;4.55;;;2.88;;
65279;SDS011;51878;55.748;48.742;2022-10-17T06:09:18;4.75;;;3.20;;
65279;SDS011;51878;55.748;48.742;2022-10-17T06:11:46;4.13;;;2.60;;
65279;SDS011;51878;55.748;48.742;2022-10-17T06:14:13;5.25;;;2.80;;
65279;SDS011;51878;55.748;48.742;2022-10-17T06:16:42;3.22;;;2.53;;
65279;SDS011;51878;55.748;48.742;2022-10-17T06:19:09;4.93;;;2.55;;
65279;SDS011;51878;55.748;48.742;2022-10-17T06:21:37;4.45;;;2.58;;
65279;SDS011;51878;55.748;48.742;2022-10-17T06:24:04;4.75;;;2.60;;
65279;SDS011;51878;55.748;48.742;2022-10-17T06:26:31;3.55;;;2.42;;
65279;SDS011;51878;55.748;48.742;2022-10-17T06:28:58;5.97;;;2.50;;
65279;SDS011;51878;55.748;48.742;2022-10-17T06:31:25;8.60;;;2.90;;
65279;SDS011;51878;55.748;48.742;2022-10-17T06:33:52;3.95;;;2.80;;
65279;SDS011;51878;55.748;48.742;2022-10-17T06:36:19;5.25;;;2.40;;
65279;SDS011;51878;55.748;48.742;2022-10-17T06:38:47;3.42;;;2.13;;
65279;SDS011;51878;55.748;48.742;2022-10-17T06:41:14;3.63;;;2.58;;
65279;SDS011;51878;55.748;48.742;2022-10-17T06:43:45;4.47;;;2.30;;
65279;SDS011;51878;55.748;48.742;2022-10-17T06:46:16;4.70;;;3.00;;
65279;SDS011;51878;55.748;48.742;2022-10-17T06:48:44;5.43;;;2.50;;
65279;SDS011;51878;55.748;48.742;2022-10-17T06:51:11;4.63;;;2.55;;
65279;SDS011;51878;55.748;48.742;2022-10-17T06:53:39;2.90;;;2.25;;
65279;SDS011;51878;55.748;48.742;2022-10-17T06:56:06;5.15;;;2.50;;
65279;SDS011;51878;55.748;48.742;2022-10-17T06:58:36;5.35;;;2.53;;
65279;SDS011;51878;55.748;48.742;2022-10-17T07:01:06;3.80;;;2.40;;
65279;SDS011;51878;55.748;48.742;2022-10-17T07:03:39;4.85;;;2.60;;
65279;SDS011;51878;55.748;48.742;2022-10-17T07:06:09;7.07;;;2.70;;
65279;SDS011;51878;55.748;48.742;2022-10-17T07:08:42;3.60;;;2.58;;
65279;SDS011;51878;55.748;48.742;2022-10-17T07:11:11;5.15;;;2.75;;
65279;SDS011;51878;55.748;48.742;2022-10-17T07:13:39;3.88;;;2.58;;
65279;SDS011;51878;55.748;48.742;2022-10-17T07:16:06;5.88;;;2.83;;
65279;SDS011;51878;55.748;48.742;2022-10-17T07:18:33;7.35;;;3.15;;
65279;SDS011;51878;55.748;48.742;2022-10-17T07:21:00;5.45;;;2.70;;
65279;SDS011;51878;55.748;48.742;2022-10-17T07:23:29;9.98;;;2.75;;
65279;SDS011;51878;55.748;48.742;2022-10-17T07:26:00;4.72;;;2.97;;
65279;SDS011;51878;55.748;48.742;2022-10-17T07:28:27;7.82;;;3.10;;
65279;SDS011;51878;55.748;48.742;2022-10-17T07:30:54;11.85;;;3.20;;
65279;SDS011;51878;55.748;48.742;2022-10-17T07:33:21;9.52;;;3.28;;
65279;SDS011;51878;55.748;48.742;2022-10-17T07:35:49;9.30;;;3.17;;
65279;SDS011;51878;55.748;48.742;2022-10-17T07:38:18;5.47;;;2.90;;
65279;SDS011;51878;55.748;48.742;2022-10-17T07:40:45;5.95;;;2.83;;
65279;SDS011;51878;55.748;48.742;2022-10-17T07:43:12;5.07;;;2.58;;
65279;SDS011;51878;55.748;48.742;2022-10-17T07:45:39;5.38;;;3.00;;
65279;SDS011;51878;55.748;48.742;2022-10-17T07:48:06;6.53;;;2.63;;
65279;SDS011;51878;55.748;48.742;2022-10-17T07:50:33;6.85;;;2.83;;
65279;SDS011;51878;55.748;48.742;2022-10-17T07:53:00;7.82;;;3.45;;
65279;SDS011;51878;55.748;48.742;2022-10-17T07:55:27;4.75;;;3.05;;
65279;SDS011;51878;55.748;48.742;2022-10-17T07:57:55;6.57;;;3.30;;
65279;SDS011;51878;55.748;48.742;2022-10-17T08:00:23;5.30;;;2.95;;
65279;SDS011;51878;55.748;48.742;2022-10-17T08:02:50;7.10;;;2.95;;
65279;SDS011;51878;55.748;48.742;2022-10-17T08:05:17;8.10;;;3.15;;
65279;SDS011;51878;55.748;48.742;2022-10-17T08:07:44;10.68;;;3.60;;
65279;SDS011;51878;55.748;48.742;2022-10-17T08:10:12;6.30;;;2.70;;
65279;SDS011;51878;55.748;48.742;2022-10-17T08:12:40;5.10;;;3.15;;
65279;SDS011;51878;55.748;48.742;2022-10-17T08:15:08;7.18;;;2.65;;
65279;SDS011;51878;55.748;48.742;2022-10-17T08:17:37;5.13;;;3.00;;
65279;SDS011;51878;55.748;48.742;2022-10-17T08:20:04;6.80;;;3.05;;
65279;SDS011;51878;55.748;48.742;2022-10-17T08:22:32;6.20;;;2.40;;
65279;SDS011;51878;55.748;48.742;2022-10-17T08:24:59;5.38;;;2.60;;
65279;SDS011;51878;55.748;48.742;2022-10-17T08:27:28;4.57;;;2.70;;
65279;SDS011;51878;55.748;48.742;2022-10-17T08:29:55;8.07;;;2.70;;
65279;SDS011;51878;55.748;48.742;2022-10-17T08:32:23;4.82;;;2.30;;
65279;SDS011;51878;55.748;48.742;2022-10-17T08:34:52;5.18;;;2.55;;
65279;SDS011;51878;55.748;48.742;2022-10-17T08:37:21;4.53;;;2.42;;
65279;SDS011;51878;55.748;48.742;2022-10-17T08:39:48;7.72;;;2.95;;
65279;SDS011;51878;55.748;48.742;2022-10-17T08:48:03;5.28;;;2.50;;
65279;SDS011;51878;55.748;48.742;2022-10-17T08:50:36;5.30;;;2.50;;
65279;SDS011;51878;55.748;48.742;2022-10-17T08:53:11;7.72;;;2.50;;
65279;SDS011;51878;55.748;48.742;2022-10-17T08:55:45;3.85;;;2.47;;
65279;SDS011;51878;55.748;48.742;2022-10-17T08:58:14;8.27;;;2.67;;
65279;SDS011;51878;55.748;48.742;2022-10-17T09:00:49;5.68;;;2.50;;
65279;SDS011;51878;55.748;48.742;2022-10-17T09:17:06;6.82;;;2.70;;
65279;SDS011;51878;55.748;48.742;2022-10-17T09:22:23;4.32;;;2.35;;
65279;SDS011;51878;55.748;48.742;2022-10-17T09:24:55;6.88;;;2.60;;
65279;SDS011;51878;55.748;48.742;2022-10-17T09:27:29;6.10;;;2.85;;
65279;SDS011;51878;55.748;48.742;2022-10-17T09:30:15;6.57;;;3.00;;
65279;SDS011;51878;55.748;48.742;2022-10-17T09:33:15;4.88;;;2.55;;
65279;SDS011;51878;55.748;48.742;2022-10-17T09:35:53;6.25;;;2.70;;
65279;SDS011;51878;55.748;48.742;2022-10-17T09:38:22;5.15;;;2.55;;
65279;SDS011;51878;55.748;48.742;2022-10-17T09:40:55;6.78;;;2.70;;
65279;SDS011;51878;55.748;48.742;2022-10-17T09:43:26;5.90;;;2.72;;
65279;SDS011;51878;55.748;48.742;2022-10-17T09:45:58;4.25;;;2.58;;
65279;SDS011;51878;55.748;48.742;2022-10-17T09:48:53;5.95;;;3.40;;
65279;SDS011;51878;55.748;48.742;2022-10-17T09:51:25;5.63;;;2.50;;
65279;SDS011;51878;55.748;48.742;2022-10-17T09:53:54;5.30;;;2.58;;
65279;SDS011;51878;55.748;48.742;2022-10-17T09:56:26;5.65;;;2.90;;
65279;SDS011;51878;55.748;48.742;2022-10-17T09:58:56;4.78;;;2.92;;
65279;SDS011;51878;55.748;48.742;2022-10-17T10:01:26;7.45;;;3.20;;
65279;SDS011;51878;55.748;48.742;2022-10-17T10:04:09;5.30;;;2.83;;
65279;SDS011;51878;55.748;48.742;2022-10-17T10:06:38;6.05;;;2.63;;
65279;SDS011;51878;55.748;48.742;2022-10-17T10:09:15;6.55;;;2.90;;
65279;SDS011;51878;55.748;48.742;2022-10-17T10:11:51;6.45;;;2.70;;
65279;SDS011;51878;55.748;48.742;2022-10-17T10:14:28;7.47;;;2.85;;
65279;SDS011;51878;55.748;48.742;2022-10-17T10:16:55;6.10;;;3.13;;
65279;SDS011;51878;55.748;48.742;2022-10-17T10:19:27;5.15;;;3.10;;
65279;SDS011;51878;55.748;48.742;2022-10-17T10:21:57;9.15;;;3.10;;
65279;SDS011;51878;55.748;48.742;2022-10-17T10:24:29;5.57;;;3.10;;
65279;SDS011;51878;55.748;48.742;2022-10-17T10:26:59;7.90;;;3.42;;
65279;SDS011;51878;55.748;48.742;2022-10-17T10:32:26;4.80;;;2.85;;
65279;SDS011;51878;55.748;48.742;2022-10-17T10:35:20;9.35;;;3.97;;
65279;SDS011;51878;55.748;48.742;2022-10-17T10:37:50;6.78;;;3.50;;
65279;SDS011;51878;55.748;48.742;2022-10-17T10:43:03;7.97;;;3.33;;
65279;SDS011;51878;55.748;48.742;2022-10-17T10:51:15;6.18;;;3.47;;
65279;SDS011;51878;55.748;48.742;2022-10-17T10:53:57;8.95;;;3.55;;
65279;SDS011;51878;55.748;48.742;2022-10-17T10:56:32;8.65;;;4.00;;
65279;SDS011;51878;55.748;48.742;2022-10-17T10:59:08;10.38;;;3.83;;
65279;SDS011;51878;55.748;48.742;2022-10-17T11:13:32;6.03;;;3.53;;
65279;SDS011;51878;55.748;48.742;2022-10-17T11:18:43;8.63;;;4.20;;
65279;SDS011;51878;55.748;48.742;2022-10-17T11:21:23;8.77;;;3.55;;
65279;SDS011;51878;55.748;48.742;2022-10-17T11:26:59;10.15;;;3.88;;
65279;SDS011;51878;55.748;48.742;2022-10-17T11:29:32;9.05;;;4.18;;
65279;SDS011;51878;55.748;48.742;2022-10-17T11:32:10;10.27;;;3.92;;
65279;SDS011;51878;55.748;48.742;2022-10-17T11:34:44;10.25;;;4.25;;
65279;SDS011;51878;55.748;48.742;2022-10-17T11:37:16;6.20;;;3.78;;
65279;SDS011;51878;55.748;48.742;2022-10-17T11:39:50;16.23;;;4.25;;
65279;SDS011;51878;55.748;48.742;2022-10-17T11:42:20;5.47;;;3.60;;
65279;SDS011;51878;55.748;48.742;2022-10-17T11:44:54;14.25;;;4.47;;
65279;SDS011;51878;55.748;48.742;2022-10-17T11:53:13;7.05;;;3.50;;
65279;SDS011;51878;55.748;48.742;2022-10-17T11:55:46;8.18;;;3.90;;
65279;SDS011;51878;55.748;48.742;2022-10-17T12:12:33;8.10;;;3.92;;
65279;SDS011;51878;55.748;48.742;2022-10-17T12:17:53;6.78;;;4.28;;
65279;SDS011;51878;55.748;48.742;2022-10-17T12:22:57;7.00;;;4.28;;
65279;SDS011;51878;55.748;48.742;2022-10-17T12:25:31;11.57;;;3.92;;
65279;SDS011;51878;55.748;48.742;2022-10-17T12:31:22;22.23;;;4.60;;
65279;SDS011;51878;55.748;48.742;2022-10-17T12:38:50;7.88;;;4.03;;
65279;SDS011;51878;55.748;48.742;2022-10-17T12:42:19;5.68;;;3.55;;
65279;SDS011;51878;55.748;48.742;2022-10-17T12:46:40;9.10;;;4.63;;
65279;SDS011;51878;55.748;48.742;2022-10-17T12:49:20;5.88;;;3.65;;
65279;SDS011;51878;55.748;48.742;2022-10-17T12:54:39;7.15;;;3.88;;
65279;SDS011;51878;55.748;48.742;2022-10-17T12:57:24;7.72;;;4.40;;
65279;SDS011;51878;55.748;48.742;2022-10-17T13:00:00;6.07;;;4.32;;
65279;SDS011;51878;55.748;48.742;2022-10-17T13:02:30;9.65;;;4.07;;
65279;SDS011;51878;55.748;48.742;2022-10-17T13:05:06;7.32;;;3.50;;
65279;SDS011;51878;55.748;48.742;2022-10-17T13:07:40;10.60;;;4.50;;
65279;SDS011;51878;55.748;48.742;2022-10-17T13:10:19;10.77;;;4.03;;
65279;SDS011;51878;55.748;48.742;2022-10-17T13:12:49;8.63;;;4.15;;
65279;SDS011;51878;55.748;48.742;2022-10-17T13:15:18;9.57;;;4.50;;
65279;SDS011;51878;55.748;48.742;2022-10-17T13:17:53;6.97;;;4.07;;
65279;SDS011;51878;55.748;48.742;2022-10-17T13:20:25;10.27;;;3.95;;
65279;SDS011;51878;55.748;48.742;2022-10-17T13:22:56;7.72;;;4.95;;
65279;SDS011;51878;55.748;48.742;2022-10-17T13:25:24;8.98;;;4.90;;
65279;SDS011;51878;55.748;48.742;2022-10-17T13:28:02;7.43;;;4.30;;
65279;SDS011;51878;55.748;48.742;2022-10-17T13:30:37;6.28;;;4.32;;
65279;SDS011;51878;55.748;48.742;2022-10-17T13:33:15;13.52;;;4.38;;
65279;SDS011;51878;55.748;48.742;2022-10-17T13:35:52;13.95;;;4.43;;
65279;SDS011;51878;55.748;48.742;2022-10-17T13:38:27;8.40;;;3.90;;
65279;SDS011;51878;55.748;48.742;2022-10-17T13:40:58;7.65;;;4.18;;
65279;SDS011;51878;55.748;48.742;2022-10-17T13:43:46;11.57;;;4.32;;
65279;SDS011;51878;55.748;48.742;2022-10-17T13:46:20;9.40;;;4.40;;
65279;SDS011;51878;55.748;48.742;2022-10-17T13:49:10;9.30;;;4.28;;
65279;SDS011;51878;55.748;48.742;2022-10-17T13:51:43;11.85;;;4.28;;
65279;SDS011;51878;55.748;48.742;2022-10-17T13:56:57;16.08;;;4.55;;
65279;SDS011;51878;55.748;48.742;2022-10-17T13:59:31;14.60;;;4.55;;
65279;SDS011;51878;55.748;48.742;2022-10-17T14:02:03;7.28;;;4.50;;
65279;SDS011;51878;55.748;48.742;2022-10-17T14:04:38;9.85;;;4.50;;
65279;SDS011;51878;55.748;48.742;2022-10-17T14:07:26;7.97;;;4.15;;
65279;SDS011;51878;55.748;48.742;2022-10-17T14:10:30;9.90;;;4.57;;
65279;SDS011;51878;55.748;48.742;2022-10-17T14:13:00;7.75;;;4.72;;
65279;SDS011;51878;55.748;48.742;2022-10-17T14:15:30;7.88;;;4.40;;
65279;SDS011;51878;55.748;48.742;2022-10-17T14:18:06;10.18;;;4.40;;
65279;SDS011;51878;55.748;48.742;2022-10-17T14:20:35;9.38;;;4.53;;
65279;SDS011;51878;55.748;48.742;2022-10-17T14:26:09;9.20;;;4.07;;
65279;SDS011;51878;55.748;48.742;2022-10-17T14:28:42;5.70;;;3.92;;
65279;SDS011;51878;55.748;48.742;2022-10-17T14:31:17;8.02;;;3.95;;
65279;SDS011;51878;55.748;48.742;2022-10-17T14:33:51;6.13;;;4.25;;
65279;SDS011;51878;55.748;48.742;2022-10-17T14:36:20;7.82;;;4.15;;
65279;SDS011;51878;55.748;48.742;2022-10-17T14:39:07;8.70;;;4.38;;
65279;SDS011;51878;55.748;48.742;2022-10-17T14:41:47;6.80;;;4.13;;
65279;SDS011;51878;55.748;48.742;2022-10-17T14:44:19;13.27;;;3.88;;
65279;SDS011;51878;55.748;48.742;2022-10-17T14:46:51;6.57;;;4.00;;
65279;SDS011;51878;55.748;48.742;2022-10-17T14:49:23;9.95;;;4.45;;
65279;SDS011;51878;55.748;48.742;2022-10-17T14:52:12;6.70;;;4.18;;
65279;SDS011;51878;55.748;48.742;2022-10-17T14:54:52;9.55;;;3.97;;
65279;SDS011;51878;55.748;48.742;2022-10-17T14:59:58;8.63;;;3.70;;
65279;SDS011;51878;55.748;48.742;2022-10-17T15:02:27;7.43;;;3.90;;
65279;SDS011;51878;55.748;48.742;2022-10-17T15:04:55;5.70;;;3.70;;
65279;SDS011;51878;55.748;48.742;2022-10-17T15:07:23;7.90;;;4.30;;
65279;SDS011;51878;55.748;48.742;2022-10-17T15:09:50;11.18;;;4.10;;
65279;SDS011;51878;55.748;48.742;2022-10-17T15:12:22;8.15;;;4.13;;
65279;SDS011;51878;55.748;48.742;2022-10-17T15:14:51;8.05;;;4.47;;
65279;SDS011;51878;55.748;48.742;2022-10-17T15:17:23;7.35;;;4.25;;
65279;SDS011;51878;55.748;48.742;2022-10-17T15:19:53;8.63;;;4.03;;
65279;SDS011;51878;55.748;48.742;2022-10-17T15:22:21;5.10;;;3.45;;
65279;SDS011;51878;55.748;48.742;2022-10-17T15:24:49;5.78;;;3.92;;
65279;SDS011;51878;55.748;48.742;2022-10-17T15:27:16;4.72;;;3.58;;
65279;SDS011;51878;55.748;48.742;2022-10-17T15:29:45;6.93;;;3.95;;
65279;SDS011;51878;55.748;48.742;2022-10-17T15:32:13;4.85;;;3.80;;
65279;SDS011;51878;55.748;48.742;2022-10-17T15:34:41;9.88;;;4.38;;
65279;SDS011;51878;55.748;48.742;2022-10-17T15:37:16;9.13;;;4.65;;
65279;SDS011;51878;55.748;48.742;2022-10-17T15:39:48;5.63;;;3.90;;
65279;SDS011;51878;55.748;48.742;2022-10-17T15:42:21;8.32;;;4.28;;
65279;SDS011;51878;55.748;48.742;2022-10-17T15:44:52;8.15;;;4.25;;
65279;SDS011;51878;55.748;48.742;2022-10-17T15:47:26;5.60;;;3.90;;
65279;SDS011;51878;55.748;48.742;2022-10-17T15:49:56;4.30;;;3.05;;
65279;SDS011;51878;55.748;48.742;2022-10-17T15:52:24;6.93;;;4.32;;
65279;SDS011;51878;55.748;48.742;2022-10-17T15:54:52;7.38;;;4.10;;
65279;SDS011;51878;55.748;48.742;2022-10-17T15:57:20;6.53;;;4.90;;
65279;SDS011;51878;55.748;48.742;2022-10-17T15:59:50;6.78;;;4.57;;
65279;SDS011;51878;55.748;48.742;2022-10-17T16:02:21;6.65;;;4.28;;
65279;SDS011;51878;55.748;48.742;2022-10-17T16:04:49;5.80;;;4.50;;
65279;SDS011;51878;55.748;48.742;2022-10-17T16:07:20;5.90;;;4.45;;
65279;SDS011;51878;55.748;48.742;2022-10-17T16:09:47;6.13;;;4.07;;
65279;SDS011;51878;55.748;48.742;2022-10-17T16:12:20;7.30;;;4.57;;
65279;SDS011;51878;55.748;48.742;2022-10-17T16:14:50;7.78;;;4.47;;
65279;SDS011;51878;55.748;48.742;2022-10-17T16:17:17;9.82;;;4.63;;
65279;SDS011;51878;55.748;48.742;2022-10-17T16:19:44;7.50;;;4.78;;
65279;SDS011;51878;55.748;48.742;2022-10-17T16:22:16;5.68;;;4.40;;
65279;SDS011;51878;55.748;48.742;2022-10-17T16:25:04;7.28;;;4.65;;
65279;SDS011;51878;55.748;48.742;2022-10-17T16:27:36;7.75;;;4.78;;
65279;SDS011;51878;55.748;48.742;2022-10-17T16:30:04;6.20;;;4.63;;
65279;SDS011;51878;55.748;48.742;2022-10-17T16:32:32;6.65;;;4.50;;
65279;SDS011;51878;55.748;48.742;2022-10-17T16:34:59;6.57;;;4.45;;
65279;SDS011;51878;55.748;48.742;2022-10-17T16:37:28;9.40;;;4.18;;
65279;SDS011;51878;55.748;48.742;2022-10-17T16:39:55;5.80;;;4.60;;
65279;SDS011;51878;55.748;48.742;2022-10-17T16:42:22;6.93;;;5.30;;
65279;SDS011;51878;55.748;48.742;2022-10-17T16:44:50;7.80;;;4.68;;
65279;SDS011;51878;55.748;48.742;2022-10-17T16:47:17;5.25;;;4.20;;
65279;SDS011;51878;55.748;48.742;2022-10-17T16:49:45;5.88;;;4.65;;
65279;SDS011;51878;55.748;48.742;2022-10-17T16:52:12;5.93;;;5.20;;
65279;SDS011;51878;55.748;48.742;2022-10-17T16:54:39;6.82;;;4.85;;
65279;SDS011;51878;55.748;48.742;2022-10-17T16:57:06;7.80;;;4.75;;
65279;SDS011;51878;55.748;48.742;2022-10-17T16:59:33;7.85;;;4.88;;
65279;SDS011;51878;55.748;48.742;2022-10-17T17:02:00;6.55;;;4.97;;
65279;SDS011;51878;55.748;48.742;2022-10-17T17:04:27;7.75;;;5.38;;
65279;SDS011;51878;55.748;48.742;2022-10-17T17:06:55;6.57;;;4.38;;
65279;SDS011;51878;55.748;48.742;2022-10-17T17:09:23;5.57;;;4.22;;
65279;SDS011;51878;55.748;48.742;2022-10-17T17:11:50;7.60;;;5.13;;
65279;SDS011;51878;55.748;48.742;2022-10-17T17:14:17;7.97;;;4.75;;
65279;SDS011;51878;55.748;48.742;2022-10-17T17:16:44;7.00;;;4.72;;
65279;SDS011;51878;55.748;48.742;2022-10-17T17:19:12;6.93;;;5.10;;
65279;SDS011;51878;55.748;48.742;2022-10-17T17:21:43;7.05;;;4.45;;